createdAt,value
2022-09-25T00:02:30.271Z,52.80
2022-09-25T00:05:00.166Z,60.40
2022-09-25T00:07:53.638Z,49.30
2022-09-25T00:10:24.715Z,53.50
2022-09-25T00:12:55.848Z,59.50
2022-09-25T00:15:30.990Z,72.30
2022-09-25T00:18:03.622Z,72.70
2022-09-25T00:20:32.924Z,89.80
2022-09-25T00:23:08.571Z,94.60
2022-09-25T00:25:41.639Z,446.60
2022-09-25T00:28:18.223Z,648.50
2022-09-25T00:30:48.293Z,593.20
2022-09-25T00:33:18.966Z,579.80
2022-09-25T00:36:17.348Z,575.20
2022-09-25T00:39:11.519Z,755.60
2022-09-25T00:41:43.409Z,708.20
2022-09-25T00:48:40.214Z,490.20
2022-09-25T00:51:13.804Z,297.20
2022-09-25T00:54:32.943Z,123.20
2022-09-25T00:57:34.055Z,73.70
2022-09-25T01:00:38.955Z,56.40
2022-09-25T01:03:39.694Z,51.80
2022-09-25T01:06:21.681Z,46.60
2022-09-25T01:08:56.410Z,46.90
2022-09-25T01:15:20.001Z,48.20
2022-09-25T01:18:02.871Z,50.20
2022-09-25T01:21:04.270Z,44.20
2022-09-25T01:24:04.385Z,41.90
2022-09-25T01:27:23.379Z,40.50
2022-09-25T01:30:27.991Z,38.50
2022-09-25T01:33:11.504Z,39.00
2022-09-25T01:35:50.496Z,42.70
2022-09-25T01:38:28.451Z,45.20
2022-09-25T01:41:33.613Z,46.30
2022-09-25T01:44:13.856Z,45.70
2022-09-25T01:47:10.074Z,41.70
2022-09-25T01:50:10.423Z,44.10
2022-09-25T01:52:45.989Z,41.70
2022-09-25T01:55:26.946Z,43.30
2022-09-25T01:58:31.791Z,42.80
2022-09-25T02:01:10.429Z,39.20
2022-09-25T02:04:56.505Z,37.00
2022-09-25T02:07:30.312Z,35.90
2022-09-25T02:10:33.071Z,37.30
2022-09-25T02:13:10.114Z,39.50
2022-09-25T02:15:44.582Z,39.70
2022-09-25T02:18:42.480Z,33.30
2022-09-25T02:21:45.242Z,39.00
2022-09-25T02:28:05.394Z,43.10
2022-09-25T02:30:39.332Z,41.30
2022-09-25T02:34:00.259Z,46.30
2022-09-25T02:37:27.792Z,40.80
2022-09-25T02:47:17.846Z,42.30
2022-09-25T02:56:46.814Z,40.40
2022-09-25T03:00:03.780Z,43.10
2022-09-25T03:03:01.487Z,42.40
2022-09-25T03:05:42.168Z,46.70
2022-09-25T03:18:38.449Z,56.50
2022-09-25T03:24:40.458Z,61.60
2022-09-25T03:27:13.953Z,61.40
2022-09-25T03:30:17.051Z,58.30
2022-09-25T03:33:20.349Z,61.40
2022-09-25T03:37:11.258Z,58.40
2022-09-25T03:39:40.026Z,52.10
2022-09-25T03:42:13.259Z,53.00
2022-09-25T03:44:49.018Z,42.60
2022-09-25T03:47:45.640Z,45.90
2022-09-25T03:50:18.733Z,41.00
2022-09-25T03:52:48.519Z,40.00
2022-09-25T03:55:23.468Z,40.80
2022-09-25T03:58:04.900Z,39.40
2022-09-25T04:00:43.582Z,38.50
2022-09-25T04:03:40.500Z,35.50
2022-09-25T04:06:37.793Z,34.40
2022-09-25T04:09:59.027Z,37.60
2022-09-25T04:12:56.641Z,33.70
2022-09-25T04:15:32.930Z,32.10
2022-09-25T04:18:07.188Z,32.50
2022-09-25T04:20:38.504Z,29.50
2022-09-25T04:23:09.965Z,34.50
2022-09-25T04:25:48.583Z,31.70
2022-09-25T04:28:26.256Z,31.00
2022-09-25T04:31:22.386Z,30.80
2022-09-25T04:37:41.890Z,30.80
2022-09-25T04:41:03.267Z,30.40
2022-09-25T04:44:26.269Z,32.40
2022-09-25T04:47:24.702Z,33.00
2022-09-25T04:50:23.672Z,35.60
2022-09-25T04:52:57.787Z,38.30
2022-09-25T04:55:30.798Z,37.40
2022-09-25T05:04:45.978Z,40.10
2022-09-25T05:07:53.943Z,40.70
2022-09-25T05:11:12.198Z,55.30
2022-09-25T05:13:50.139Z,58.60
2022-09-25T05:16:25.979Z,55.20
2022-09-25T05:19:46.816Z,46.20
2022-09-25T05:22:44.124Z,43.80
2022-09-25T05:25:23.713Z,42.80
2022-09-25T05:31:10.059Z,35.70
2022-09-25T05:37:10.867Z,32.70
2022-09-25T05:40:29.101Z,31.70
2022-09-25T05:43:00.660Z,34.70
2022-09-25T05:45:32.029Z,36.30
2022-09-25T05:48:07.781Z,35.30
2022-09-25T05:50:39.787Z,40.20
2022-09-25T05:53:14.373Z,41.10
2022-09-25T06:02:59.462Z,37.70
2022-09-25T06:05:37.229Z,42.00
2022-09-25T06:08:42.483Z,39.70
2022-09-25T06:12:11.275Z,40.30
2022-09-25T06:14:48.432Z,43.60
2022-09-25T06:17:20.816Z,47.10
2022-09-25T06:19:51.301Z,40.10
2022-09-25T06:29:08.205Z,32.40
2022-09-25T06:31:43.027Z,31.90
2022-09-25T06:35:28.774Z,33.20
2022-09-25T06:38:04.877Z,31.00
2022-09-25T06:40:41.777Z,28.20
2022-09-25T06:43:43.181Z,29.20
2022-09-25T06:46:47.703Z,29.50
2022-09-25T06:49:28.487Z,30.30
2022-09-25T06:52:25.125Z,30.60
2022-09-25T06:55:00.262Z,31.00
2022-09-25T06:57:55.595Z,25.80
2022-09-25T07:00:28.479Z,31.20
2022-09-25T07:03:21.421Z,31.00
2022-09-25T07:05:53.861Z,30.50
2022-09-25T07:08:26.679Z,29.90
2022-09-25T07:11:00.188Z,29.40
2022-09-25T07:14:00.488Z,29.00
2022-09-25T07:16:56.835Z,27.40
2022-09-25T07:19:30.129Z,30.30
2022-09-25T07:22:27.618Z,28.10
2022-09-25T07:25:23.310Z,29.30
2022-09-25T07:27:52.376Z,30.90
2022-09-25T07:30:20.786Z,29.10
2022-09-25T07:36:45.323Z,27.40
2022-09-25T07:39:40.586Z,28.00
2022-09-25T07:42:11.395Z,30.70
2022-09-25T07:45:15.347Z,25.20
2022-09-25T07:48:17.739Z,25.90
2022-09-25T07:54:43.284Z,26.10
2022-09-25T07:57:38.895Z,27.60
2022-09-25T08:00:36.150Z,30.80
2022-09-25T08:03:11.070Z,26.50
2022-09-25T08:05:45.280Z,29.50
2022-09-25T08:10:26.829Z,32.30
2022-09-25T08:13:31.126Z,30.80
2022-09-25T08:16:05.110Z,30.90
2022-09-25T08:18:38.394Z,30.40
2022-09-25T08:21:40.854Z,30.40
2022-09-25T08:25:04.483Z,30.40
2022-09-25T08:27:47.393Z,32.00
2022-09-25T08:30:18.950Z,28.90
2022-09-25T08:33:39.559Z,29.90
2022-09-25T08:36:36.247Z,29.90
2022-09-25T08:39:11.650Z,27.40
2022-09-25T08:41:50.350Z,27.40
2022-09-25T08:44:29.690Z,25.60
2022-09-25T08:47:38.728Z,24.20
2022-09-25T08:50:38.646Z,24.50
2022-09-25T08:57:56.968Z,25.60
2022-09-25T09:01:45.131Z,27.00
2022-09-25T09:04:51.507Z,25.00
2022-09-25T09:07:45.012Z,26.20
2022-09-25T09:10:31.449Z,24.60
2022-09-25T09:13:16.108Z,24.90
2022-09-25T09:16:36.456Z,27.20
2022-09-25T09:19:10.871Z,27.20
2022-09-25T09:22:31.340Z,27.50
2022-09-25T09:25:13.481Z,26.30
2022-09-25T09:28:14.501Z,27.80
2022-09-25T09:30:53.642Z,30.50
2022-09-25T09:33:49.715Z,32.00
2022-09-25T09:36:50.240Z,29.70
2022-09-25T09:39:50.177Z,31.40
2022-09-25T09:49:14.941Z,26.90
2022-09-25T09:52:20.561Z,31.10
2022-09-25T09:55:30.475Z,28.50
2022-09-25T09:58:10.057Z,30.20
2022-09-25T10:01:16.252Z,29.00
2022-09-25T10:04:24.779Z,28.60
2022-09-25T10:07:24.762Z,31.40
2022-09-25T10:10:27.542Z,31.20
2022-09-25T10:16:13.191Z,28.30
2022-09-25T10:19:19.500Z,31.70
2022-09-25T10:22:23.063Z,26.70
2022-09-25T10:27:55.726Z,26.00
2022-09-25T10:30:24.287Z,26.80
2022-09-25T10:33:06.318Z,24.80
2022-09-25T10:35:49.327Z,25.30
2022-09-25T10:38:55.283Z,24.40
2022-09-25T10:41:49.212Z,24.60
2022-09-25T10:44:25.491Z,23.50
2022-09-25T10:47:58.503Z,23.80
2022-09-25T10:50:41.145Z,24.00
2022-09-25T10:53:38.899Z,22.60
2022-09-25T10:56:15.753Z,25.50
2022-09-25T10:59:20.115Z,20.50
2022-09-25T11:02:02.625Z,24.00
2022-09-25T11:04:57.857Z,22.10
2022-09-25T11:07:31.431Z,22.70
2022-09-25T11:11:15.760Z,24.00
2022-09-25T11:15:00.441Z,22.60
2022-09-25T11:17:56.758Z,22.20
2022-09-25T11:20:33.592Z,19.40
2022-09-25T11:23:26.199Z,20.20
2022-09-25T11:26:36.687Z,21.70
2022-09-25T11:29:41.622Z,20.10
2022-09-25T11:32:23.660Z,21.60
2022-09-25T11:35:31.965Z,18.30
2022-09-25T11:38:20.912Z,18.30
2022-09-25T11:45:33.421Z,18.70
2022-09-25T11:52:43.793Z,18.20
2022-09-25T11:55:47.175Z,18.00
2022-09-25T12:01:54.780Z,22.70
2022-09-25T12:08:55.705Z,17.20
2022-09-25T12:17:57.021Z,16.40
2022-09-25T12:21:07.266Z,15.30
2022-09-25T12:23:46.001Z,15.10
2022-09-25T12:26:53.220Z,16.00
2022-09-25T12:29:47.574Z,14.00
2022-09-25T12:32:53.211Z,14.00
2022-09-25T12:35:38.927Z,13.00
2022-09-25T12:38:21.242Z,12.90
2022-09-25T12:44:56.603Z,13.60
2022-09-25T12:58:00.647Z,12.00
2022-09-25T13:00:35.677Z,11.90
2022-09-25T13:03:22.123Z,12.50
2022-09-25T13:19:53.583Z,10.40
2022-09-25T13:22:50.766Z,8.70
2022-09-25T13:25:47.262Z,19.70
2022-09-25T13:28:27.453Z,10.60
2022-09-25T13:31:12.515Z,12.70
2022-09-25T13:34:16.900Z,11.80
2022-09-25T13:36:50.554Z,11.50
2022-09-25T13:42:57.980Z,16.10
2022-09-25T13:45:35.380Z,11.70
2022-09-25T13:48:22.312Z,11.70
2022-09-25T13:51:45.144Z,12.50
2022-09-25T13:54:33.248Z,13.90
2022-09-25T13:57:18.374Z,13.50
2022-09-25T14:00:06.348Z,11.80
2022-09-25T14:02:46.988Z,14.40
2022-09-25T14:05:27.447Z,11.10
2022-09-25T14:11:41.152Z,16.60
2022-09-25T14:17:21.794Z,13.40
2022-09-25T14:19:58.986Z,13.70
2022-09-25T14:23:42.632Z,14.50
2022-09-25T14:26:21.931Z,12.90
2022-09-25T14:28:54.941Z,14.70
2022-09-25T14:31:45.171Z,13.30
2022-09-25T14:34:44.232Z,13.70
2022-09-25T14:40:46.250Z,13.70
2022-09-25T14:43:44.755Z,13.90
2022-09-25T14:46:19.325Z,13.30
2022-09-25T14:48:56.044Z,13.60
2022-09-25T14:51:31.437Z,14.10
2022-09-25T14:54:13.403Z,13.40
2022-09-25T14:56:49.841Z,14.40
2022-09-25T14:59:46.031Z,13.70
2022-09-25T15:03:09.578Z,14.40
2022-09-25T15:05:50.732Z,16.10
2022-09-25T15:08:26.103Z,13.10
2022-09-25T15:11:13.859Z,12.50
2022-09-25T15:14:11.505Z,14.10
2022-09-25T15:17:05.010Z,15.70
2022-09-25T15:19:40.300Z,16.10
2022-09-25T15:22:38.666Z,14.20
2022-09-25T15:25:23.103Z,16.40
2022-09-25T15:31:04.970Z,18.80
2022-09-25T15:33:42.513Z,19.70
2022-09-25T15:36:41.807Z,18.00
2022-09-25T15:42:25.451Z,16.50
2022-09-25T15:45:44.461Z,16.40
2022-09-25T15:48:42.148Z,15.40
2022-09-25T15:51:37.712Z,15.10
2022-09-25T15:54:43.411Z,16.00
2022-09-25T15:57:16.803Z,16.50
2022-09-25T16:00:08.513Z,14.90
2022-09-25T16:03:04.587Z,15.30
2022-09-25T16:05:37.895Z,15.70
2022-09-25T16:08:33.925Z,14.60
2022-09-25T16:11:29.222Z,15.80
2022-09-25T16:14:32.174Z,17.20
2022-09-25T16:17:33.386Z,17.10
2022-09-25T16:20:56.708Z,20.70
2022-09-25T16:23:57.286Z,17.60
2022-09-25T16:26:47.874Z,17.80
2022-09-25T16:29:23.376Z,18.70
2022-09-25T16:38:01.786Z,19.20
2022-09-25T16:40:39.590Z,20.90
2022-09-25T16:43:43.756Z,21.30
2022-09-25T16:49:52.455Z,25.70
2022-09-25T17:02:37.375Z,24.90
2022-09-25T17:05:20.870Z,26.50
2022-09-25T17:07:52.754Z,25.30
2022-09-25T17:10:29.364Z,27.30
2022-09-25T17:13:05.945Z,25.90
2022-09-25T17:15:40.639Z,27.40
2022-09-25T17:18:23.445Z,26.80
2022-09-25T17:21:21.794Z,29.60
2022-09-25T17:23:58.680Z,30.20
2022-09-25T17:26:37.029Z,31.80
2022-09-25T17:29:13.843Z,31.80
2022-09-25T17:31:46.830Z,33.50
2022-09-25T17:34:51.581Z,36.50
2022-09-25T17:37:28.366Z,35.90
2022-09-25T17:41:16.584Z,36.30
2022-09-25T17:43:57.077Z,37.30
2022-09-25T17:46:34.335Z,39.90
2022-09-25T17:52:27.470Z,39.60
2022-09-25T17:55:06.682Z,41.90
2022-09-25T17:57:45.660Z,39.10
2022-09-25T18:00:45.253Z,39.20
2022-09-25T18:03:46.857Z,38.70
2022-09-25T18:06:31.219Z,42.70
2022-09-25T18:09:32.755Z,42.80
2022-09-25T18:16:46.057Z,42.00
2022-09-25T18:19:45.752Z,39.40
2022-09-25T18:22:22.454Z,38.90
2022-09-25T18:24:58.930Z,43.00
2022-09-25T18:27:57.312Z,44.10
2022-09-25T18:30:32.797Z,44.50
2022-09-25T18:33:10.594Z,49.40
2022-09-25T18:35:46.526Z,47.30
2022-09-25T18:38:50.595Z,47.30
2022-09-25T18:41:32.625Z,46.80
2022-09-25T18:44:41.304Z,51.60
2022-09-25T18:47:49.810Z,49.70
2022-09-25T18:50:29.730Z,56.60
2022-09-25T18:53:16.098Z,57.00
2022-09-25T18:55:53.643Z,50.40
2022-09-25T18:58:31.764Z,47.80
2022-09-25T19:01:07.606Z,49.90
2022-09-25T19:03:44.589Z,47.10
2022-09-25T19:07:04.426Z,49.50
2022-09-25T19:09:44.139Z,55.00
2022-09-25T19:12:41.217Z,55.60
2022-09-25T19:15:25.066Z,56.20
2022-09-25T19:18:00.294Z,57.50
2022-09-25T19:20:35.569Z,58.20
2022-09-25T19:26:27.624Z,53.30
2022-09-25T19:29:01.864Z,53.60
2022-09-25T19:31:44.647Z,55.00
2022-09-25T19:34:19.588Z,56.50
2022-09-25T19:36:57.447Z,53.90
2022-09-25T19:40:13.439Z,49.60
2022-09-25T19:42:48.543Z,47.60
2022-09-25T19:45:20.671Z,53.10
2022-09-25T19:48:19.740Z,53.00
2022-09-25T19:51:16.679Z,49.50
2022-09-25T19:54:15.240Z,50.00
2022-09-25T19:57:11.398Z,48.50
2022-09-25T19:59:49.640Z,51.40
2022-09-25T20:02:30.759Z,46.70
2022-09-25T20:05:17.928Z,50.30
2022-09-25T20:07:49.796Z,48.20
2022-09-25T20:10:20.725Z,52.80
2022-09-25T20:12:52.718Z,52.90
2022-09-25T20:15:26.045Z,52.60
2022-09-25T20:18:03.860Z,61.70
2022-09-25T20:20:36.445Z,65.80
2022-09-25T20:23:12.310Z,58.30
2022-09-25T20:25:42.266Z,59.40
2022-09-25T20:28:59.012Z,53.00
2022-09-25T20:31:56.066Z,55.20
2022-09-25T20:34:27.823Z,52.00
2022-09-25T20:37:06.146Z,53.90
2022-09-25T20:40:10.799Z,57.90
2022-09-25T20:42:52.799Z,63.80
2022-09-25T20:45:48.325Z,64.50
2022-09-25T20:48:20.837Z,64.80
2022-09-25T20:52:04.436Z,69.20
2022-09-25T20:57:54.714Z,63.80
2022-09-25T21:00:31.936Z,60.90
2022-09-25T21:03:04.863Z,67.60
2022-09-25T21:05:49.547Z,66.40
2022-09-25T21:08:20.855Z,63.50
2022-09-25T21:10:55.762Z,65.30
2022-09-25T21:13:51.323Z,76.30
2022-09-25T21:16:33.225Z,79.50
2022-09-25T21:19:31.944Z,72.00
2022-09-25T21:22:24.762Z,66.10
2022-09-25T21:25:18.498Z,69.60
2022-09-25T21:28:17.110Z,67.10
2022-09-25T21:30:47.506Z,70.60
2022-09-25T21:34:36.507Z,64.70
2022-09-25T21:37:32.842Z,67.30
2022-09-25T21:40:20.335Z,67.20
2022-09-25T21:43:13.701Z,69.50
2022-09-25T21:46:08.945Z,67.80
2022-09-25T21:55:22.261Z,63.70
2022-09-25T21:57:56.258Z,65.60
2022-09-25T22:00:26.705Z,66.80
2022-09-25T22:03:00.547Z,62.60
2022-09-25T22:05:34.827Z,62.00
2022-09-25T22:08:08.619Z,67.90
2022-09-25T22:17:57.245Z,89.60
2022-09-25T22:20:32.299Z,94.10
2022-09-25T22:23:08.314Z,102.30
2022-09-25T22:25:38.685Z,108.40
2022-09-25T22:28:08.672Z,104.60
2022-09-25T22:30:45.490Z,103.80
2022-09-25T22:33:24.299Z,118.20
2022-09-25T22:36:05.105Z,109.90
2022-09-25T22:39:23.781Z,108.00
2022-09-25T22:42:01.898Z,130.00
2022-09-25T22:45:27.922Z,114.70
2022-09-25T22:47:59.555Z,110.70
2022-09-25T22:50:33.661Z,104.10
2022-09-25T22:53:07.396Z,109.60
2022-09-25T22:55:38.160Z,106.80
2022-09-25T22:58:06.733Z,112.00
2022-09-25T23:00:38.979Z,110.10
2022-09-25T23:03:11.276Z,104.00
2022-09-25T23:05:51.880Z,106.10
2022-09-25T23:08:21.888Z,101.80
2022-09-25T23:11:46.108Z,105.00
2022-09-25T23:14:29.855Z,96.00
2022-09-25T23:20:48.248Z,93.50
2022-09-25T23:23:19.772Z,92.50
2022-09-25T23:25:53.091Z,93.30
2022-09-25T23:28:22.316Z,93.10
2022-09-25T23:30:57.343Z,98.10
2022-09-25T23:33:28.594Z,98.80
2022-09-25T23:36:25.496Z,96.80
2022-09-25T23:39:24.929Z,86.80
2022-09-25T23:42:03.744Z,97.10
2022-09-25T23:45:24.484Z,95.30
2022-09-25T23:47:57.755Z,119.70
2022-09-25T23:50:30.677Z,119.00
2022-09-25T23:53:09.296Z,111.90
2022-09-25T23:56:07.635Z,113.80
2022-09-25T23:59:27.297Z,116.90
